M I D A S
Marine Information and Data Acquisition System
Tripno 146 of the Zeeleeuw from 2001-08-02 01:00:02 to 2001-08-02 21:00:00
Back to CruiseResearch ActivitiesStationsMapUnderway DataData graphs

EquipmentUnitsComment
TimeDGPSUTC
LatitudeDGPSDM.mWGS84
LongitudeDGPSDM.mWGS84
HeadingGyrodeg 
SOGDGPSknotsSpeed over ground
COGDGPSdegCourse over ground
DepthEcho soundermeters200 kHz
Missing or incorrect values are displayed as -999
Navigation data collected by the RV Zeeleeuw from 2001-08-02 01:00:02 to 2001-08-02 21:00:00
                                                                                    Next 1000 lines
Time Latitude Longitude Heading SOG COG Depth
2001-08-02 01:00:12 51°13.676 2°55.925     246.9 -999
2001-08-02 01:00:17 51°13.676 2°55.925     231.5 -999
2001-08-02 01:00:22 51°13.676 2°55.925     230.3 -999
2001-08-02 01:00:27 51°13.676 2°55.925     217.3 -999
2001-08-02 01:00:32 51°13.676 2°55.925     230.3 -999
2001-08-02 01:00:37 51°13.676 2°55.925     254.9 -999
2001-08-02 01:00:42 51°13.676 2°55.925     223.8 -999
2001-08-02 01:00:47 51°13.676 2°55.925 359.8   1.2 -999
2001-08-02 01:00:52 51°13.676 2°55.925 359.8   329.4 -999
2001-08-02 01:00:57 51°13.676 2°55.925 359.8   314.8 -999
2001-08-02 01:01:02 51°13.676 2°55.925 359.8   321.5 -999
2001-08-02 01:01:07 51°13.676 2°55.925 359.8   15.2 -999
2001-08-02 01:01:12 51°13.676 2°55.925 359.8   293.6 -999
2001-08-02 01:01:17 51°13.676 2°55.925 359.8   275.4 -999
2001-08-02 01:01:22 51°13.676 2°55.925 359.8   231.2 -999
2001-08-02 01:01:27 51°13.676 2°55.925     217.5 -999
2001-08-02 01:01:32 51°13.676 2°55.925     214.5 -999
2001-08-02 01:01:37 51°13.676 2°55.925 0.2   209 -999
2001-08-02 01:01:41 51°13.676 2°55.925 0.2   210.7 -999
2001-08-02 01:01:47 51°13.676 2°55.925 0.2   208.2 -999
2001-08-02 01:01:52 51°13.676 2°55.925     228.2 -999
2001-08-02 01:01:57 51°13.676 2°55.925     261.8 -999
2001-08-02 01:02:02 51°13.676 2°55.925     226.2 -999
2001-08-02 01:02:07 51°13.676 2°55.925     249.4 -999
2001-08-02 01:02:12 51°13.676 2°55.925     312.9 -999
2001-08-02 01:02:17 51°13.676 2°55.925     325 -999
2001-08-02 01:02:22 51°13.676 2°55.925     321 -999
2001-08-02 01:02:27 51°13.676 2°55.926 359.8   262.3 -999
2001-08-02 01:02:32 51°13.676 2°55.926 359.8   236.7 -999
2001-08-02 01:02:37 51°13.676 2°55.926 359.8   215.2 -999
2001-08-02 01:02:42 51°13.676 2°55.926     209.3 -999
2001-08-02 01:02:47 51°13.676 2°55.926 0.2   203.5 -999
2001-08-02 01:02:52 51°13.676 2°55.926 0.2   205.9 -999
2001-08-02 01:02:57 51°13.676 2°55.926 0.3   209.1 -999
2001-08-02 01:03:02 51°13.676 2°55.926 0.3   132.1 -999
2001-08-02 01:03:07 51°13.676 2°55.926 0.3   200.3 -999
2001-08-02 01:03:12 51°13.676 2°55.926 0.5   216.5 -999
2001-08-02 01:03:17 51°13.676 2°55.926 0.5   317.2 -999
2001-08-02 01:03:22 51°13.676 2°55.926 0.5   315.9 -999
2001-08-02 01:03:27 51°13.676 2°55.926 0.5   293 -999
2001-08-02 01:03:32 51°13.676 2°55.926 0.5   221.2 -999
2001-08-02 01:03:37 51°13.676 2°55.926 0.5   162 -999
2001-08-02 01:03:42 51°13.676 2°55.926 0.3   6.1 -999
2001-08-02 01:03:47 51°13.676 2°55.926 0.3   301.7 -999
2001-08-02 01:03:52 51°13.676 2°55.926 0.3   250.4 -999
2001-08-02 01:03:57 51°13.676 2°55.926 0.3   238.7 -999
2001-08-02 01:04:02 51°13.676 2°55.926 0.3   253.7 -999
2001-08-02 01:04:07 51°13.676 2°55.926 0.3   264 -999
2001-08-02 01:04:12 51°13.676 2°55.926 0.5   280.1 -999
2001-08-02 01:04:17 51°13.676 2°55.926 0.5   202.7 -999
2001-08-02 01:04:22 51°13.676 2°55.926 0.3   164.5 -999
2001-08-02 01:04:27 51°13.676 2°55.926 0.3   195.6 -999
2001-08-02 01:04:32 51°13.676 2°55.926 0.3   187.7 -999
2001-08-02 01:04:37 51°13.676 2°55.926 0.5   254.5 -999
2001-08-02 01:04:42 51°13.676 2°55.926 0.5   287.8 -999
2001-08-02 01:04:47 51°13.676 2°55.926 0.5   187.3 -999
2001-08-02 01:04:52 51°13.676 2°55.926 0.5   165.8 -999
2001-08-02 01:04:57 51°13.676 2°55.926 0.5   219.8 -999
2001-08-02 01:05:02 51°13.677 2°55.926 0.5   294.6 -999
2001-08-02 01:05:07 51°13.677 2°55.926 0.5   326.2 -999
2001-08-02 01:05:12 51°13.677 2°55.926 0.5   353 -999
2001-08-02 01:05:17 51°13.677 2°55.926 0.3   2 -999
2001-08-02 01:05:22 51°13.677 2°55.926 0.3   23 -999
2001-08-02 01:05:27 51°13.677 2°55.926 0.2   203 -999
2001-08-02 01:05:32 51°13.677 2°55.926 0.2   214.7 -999
2001-08-02 01:05:37 51°13.677 2°55.925 0.2   219.3 -999
2001-08-02 01:05:42 51°13.677 2°55.925 0.2   218.2 -999
2001-08-02 01:05:47 51°13.677 2°55.925 0.2   213 -999
2001-08-02 01:05:52 51°13.677 2°55.925 0.3   210.5 -999
2001-08-02 01:05:57 51°13.677 2°55.925 0.3   213.6 -999
2001-08-02 01:06:02 51°13.677 2°55.925 0.3   213.5 -999
2001-08-02 01:06:07 51°13.677 2°55.925 0.3   215.7 -999
2001-08-02 01:06:12 51°13.677 2°55.925 0.2   280.4 -999
2001-08-02 01:06:17 51°13.677 2°55.925 0.2   325.6 -999
2001-08-02 01:06:21 51°13.677 2°55.925 0.2   266.1 -999
2001-08-02 01:06:27 51°13.677 2°55.925 0.2   199.4 -999
2001-08-02 01:06:32 51°13.677 2°55.925 0.3   197.4 -999
2001-08-02 01:06:37 51°13.677 2°55.925 0.3   198.9 -999
2001-08-02 01:06:42 51°13.677 2°55.925 0.5   209.1 -999
2001-08-02 01:06:47 51°13.677 2°55.925 0.5   249.6 -999
2001-08-02 01:06:52 51°13.677 2°55.925 0.7   263.7 -999
2001-08-02 01:06:57 51°13.677 2°55.925 0.7   219.7 -999
2001-08-02 01:07:02 51°13.677 2°55.925 0.5   188.2 -999
2001-08-02 01:07:07 51°13.677 2°55.925 0.5   18.2 -999
2001-08-02 01:07:12 51°13.677 2°55.925 0.5   328.5 -999
2001-08-02 01:07:17 51°13.677 2°55.925 0.3   268.5 -999
2001-08-02 01:07:22 51°13.677 2°55.925 0.3   292 -999
2001-08-02 01:07:27 51°13.677 2°55.925 0.3   226.5 -999
2001-08-02 01:07:32 51°13.677 2°55.925 0.2   197 -999
2001-08-02 01:07:37 51°13.677 2°55.925 0.2   188.4 -999
2001-08-02 01:07:42 51°13.677 2°55.925     201 -999
2001-08-02 01:07:47 51°13.677 2°55.925     229.5 -999
2001-08-02 01:07:52 51°13.677 2°55.925 0.2   237 -999
2001-08-02 01:07:57 51°13.677 2°55.925 0.2   239.1 -999
2001-08-02 01:08:01 51°13.677 2°55.925 0.3   222.6 -999
2001-08-02 01:08:07 51°13.677 2°55.925 0.3   214 -999
2001-08-02 01:08:12 51°13.677 2°55.924 0.3   193.9 -999
2001-08-02 01:08:17 51°13.677 2°55.924 0.5   174.3 -999
2001-08-02 01:08:22 51°13.677 2°55.924 0.5   181.5 -999
2001-08-02 01:08:27 51°13.677 2°55.924 0.5   262 -999
2001-08-02 01:08:32 51°13.677 2°55.924 0.5   230.8 -999
2001-08-02 01:08:37 51°13.677 2°55.924 0.3   10.7 -999
2001-08-02 01:08:42 51°13.677 2°55.924 0.3   356.8 -999
2001-08-02 01:08:47 51°13.677 2°55.924 0.2   3 -999
2001-08-02 01:08:52 51°13.677 2°55.924 0.2   2.1 -999
2001-08-02 01:08:57 51°13.677 2°55.924     253.1 -999
2001-08-02 01:09:02 51°13.677 2°55.924 0.2   229.1 -999
2001-08-02 01:09:07 51°13.677 2°55.924 0.2   218.4 -999
2001-08-02 01:09:12 51°13.677 2°55.924 0.3   209.3 -999
2001-08-02 01:09:17 51°13.677 2°55.924 0.3   203.2 -999
2001-08-02 01:09:22 51°13.677 2°55.924 0.3   211 -999
2001-08-02 01:09:27 51°13.677 2°55.924 0.3   248.6 -999
2001-08-02 01:09:32 51°13.677 2°55.924 0.3   171.3 -999
2001-08-02 01:09:37 51°13.677 2°55.924 0.2   128.8 -999
2001-08-02 01:09:42 51°13.677 2°55.924 0.2   94.5 -999
2001-08-02 01:09:47 51°13.677 2°55.925     46.9 -999
2001-08-02 01:09:52 51°13.677 2°55.925 0.2   239.3 -999
2001-08-02 01:09:57 51°13.677 2°55.925 0.3   247.9 -999
2001-08-02 01:10:02 51°13.677 2°55.925 0.3   256.8 -999
2001-08-02 01:10:07 51°13.677 2°55.925 0.5   194.6 -999
2001-08-02 01:10:12 51°13.677 2°55.925 0.3   147.5 -999
2001-08-02 01:10:17 51°13.677 2°55.924 0.3   147.1 -999
2001-08-02 01:10:21 51°13.677 2°55.924 0.2   228.4 -999
2001-08-02 01:10:27 51°13.677 2°55.924 0.2   283.9 -999
2001-08-02 01:10:32 51°13.677 2°55.924 0.2   321 -999
2001-08-02 01:10:37 51°13.677 2°55.924 0.2   289.8 -999
2001-08-02 01:10:42 51°13.677 2°55.924 0.2   216.3 -999
2001-08-02 01:10:47 51°13.677 2°55.924 0.2   185.5 -999
2001-08-02 01:10:52 51°13.677 2°55.924 0.2   161.1 -999
2001-08-02 01:10:57 51°13.677 2°55.924     175.3 -999
2001-08-02 01:11:02 51°13.677 2°55.924     216.8 -999
2001-08-02 01:11:07 51°13.677 2°55.924     261.6 -999
2001-08-02 01:11:12 51°13.677 2°55.924     274.3 -999
2001-08-02 01:11:17 51°13.677 2°55.924     254.3 -999
2001-08-02 01:11:22 51°13.677 2°55.924     244 -999
2001-08-02 01:11:27 51°13.677 2°55.924     178.2 -999
2001-08-02 01:11:32 51°13.677 2°55.925 359.8   191.6 -999
2001-08-02 01:11:37 51°13.677 2°55.925 359.8   214.6 -999
2001-08-02 01:11:42 51°13.677 2°55.925 359.8   244.6 -999
2001-08-02 01:11:47 51°13.677 2°55.925     244.4 -999
2001-08-02 01:11:52 51°13.677 2°55.925     230.7 -999
2001-08-02 01:11:57 51°13.677 2°55.926     204.3 -999
2001-08-02 01:12:02 51°13.677 2°55.926 359.8   236.2 -999
2001-08-02 01:12:07 51°13.677 2°55.926 359.8   240.7 -999
2001-08-02 01:12:12 51°13.677 2°55.926     250.5 -999
2001-08-02 01:12:17 51°13.677 2°55.926     258.8 -999
2001-08-02 01:12:22 51°13.677 2°55.926     217.2 -999
2001-08-02 01:12:27 51°13.677 2°55.926     202.4 -999
2001-08-02 01:12:32 51°13.677 2°55.925 0.2   235.4 -999
2001-08-02 01:12:37 51°13.677 2°55.925 0.2   234.4 -999
2001-08-02 01:12:42 51°13.677 2°55.925 0.2   290.4 -999
2001-08-02 01:12:47 51°13.677 2°55.925 0.2   201.2 -999
2001-08-02 01:12:52 51°13.677 2°55.925 0.2   217.1 -999
2001-08-02 01:12:57 51°13.677 2°55.924 0.3   218.4 -999
2001-08-02 01:13:02 51°13.677 2°55.924 0.3   194.4 -999
2001-08-02 01:13:07 51°13.677 2°55.924 0.3   154.7 -999
2001-08-02 01:13:12 51°13.677 2°55.924 0.3   142.1 -999
2001-08-02 01:13:17 51°13.677 2°55.924 0.3   176 -999
2001-08-02 01:13:22 51°13.677 2°55.924 0.3   235.2 -999
2001-08-02 01:13:27 51°13.677 2°55.924 0.5   260.6 -999
2001-08-02 01:13:32 51°13.677 2°55.924 0.5   262 -999
2001-08-02 01:13:37 51°13.677 2°55.924 0.5   242.4 -999
2001-08-02 01:13:42 51°13.677 2°55.924 0.3   149.6 -999
2001-08-02 01:13:47 51°13.677 2°55.924 0.3   164.9 -999
2001-08-02 01:13:52 51°13.677 2°55.924 0.2   186.2 -999
2001-08-02 01:13:57 51°13.677 2°55.924 0.2   187.7 -999
2001-08-02 01:14:02 51°13.677 2°55.925 0.2   206.9 -999
2001-08-02 01:14:07 51°13.677 2°55.925     224.1 -999
2001-08-02 01:14:12 51°13.677 2°55.925     186.8 -999
2001-08-02 01:14:17 51°13.677 2°55.925     176.3 -999
2001-08-02 01:14:22 51°13.677 2°55.925     168.1 -999
2001-08-02 01:14:27 51°13.677 2°55.925     188.5 -999
2001-08-02 01:14:32 51°13.677 2°55.925 0.2   215.3 -999
2001-08-02 01:14:37 51°13.677 2°55.925 0.2   182.4 -999
2001-08-02 01:14:42 51°13.676 2°55.925 0.2   151.4 -999
2001-08-02 01:14:47 51°13.676 2°55.926 0.2   181.3 -999
2001-08-02 01:14:52 51°13.676 2°55.926 0.2   207 -999
2001-08-02 01:14:57 51°13.676 2°55.926 0.3   151.6 -999
2001-08-02 01:15:02 51°13.676 2°55.926 0.3   146.9 -999
2001-08-02 01:15:07 51°13.676 2°55.926 0.2   153.2 -999
2001-08-02 01:15:12 51°13.676 2°55.926 0.2   293.1 -999
2001-08-02 01:15:17 51°13.676 2°55.926 0.2   239.5 -999
2001-08-02 01:15:22 51°13.676 2°55.926 0.2   142.7 -999
2001-08-02 01:15:27 51°13.676 2°55.926 0.2   151.3 -999
2001-08-02 01:15:32 51°13.676 2°55.926 0.2   165.7 -999
2001-08-02 01:15:37 51°13.676 2°55.926 0.2   175 -999
2001-08-02 01:15:42 51°13.676 2°55.926     157.7 -999
2001-08-02 01:15:47 51°13.676 2°55.926     170 -999
2001-08-02 01:15:52 51°13.676 2°55.926     168.1 -999
2001-08-02 01:15:57 51°13.676 2°55.926     159.5 -999
2001-08-02 01:16:02 51°13.676 2°55.926     161.1 -999
2001-08-02 01:16:07 51°13.676 2°55.926     174.1 -999
2001-08-02 01:16:12 51°13.676 2°55.926 0.2   166.7 -999
2001-08-02 01:16:17 51°13.676 2°55.926 0.2   176.4 -999
2001-08-02 01:16:22 51°13.676 2°55.926 0.2   164.2 -999
2001-08-02 01:16:27 51°13.676 2°55.926 0.2   162.7 -999
2001-08-02 01:16:32 51°13.676 2°55.926     185.8 -999
2001-08-02 01:16:37 51°13.676 2°55.926     181.9 -999
2001-08-02 01:16:42 51°13.676 2°55.926     167.2 -999
2001-08-02 01:16:47 51°13.676 2°55.926     164.2 -999
2001-08-02 01:16:52 51°13.676 2°55.926     178.4 -999
2001-08-02 01:16:57 51°13.676 2°55.926     302.2 -999
2001-08-02 01:17:02 51°13.676 2°55.926     261.7 -999
2001-08-02 01:17:07 51°13.676 2°55.926     203.2 -999
2001-08-02 01:17:12 51°13.676 2°55.926     179.6 -999
2001-08-02 01:17:17 51°13.676 2°55.926 359.8   126.2 -999
2001-08-02 01:17:21 51°13.676 2°55.926 359.8   132.2 -999
2001-08-02 01:17:27 51°13.676 2°55.926 359.8   177.3 -999
2001-08-02 01:17:32 51°13.676 2°55.926 359.8   189.5 -999
2001-08-02 01:17:37 51°13.676 2°55.926 359.8   213.5 -999
2001-08-02 01:17:42 51°13.676 2°55.926 359.8   218.4 -999
2001-08-02 01:17:47 51°13.676 2°55.926 359.8   198 -999
2001-08-02 01:17:52 51°13.676 2°55.926     176.2 -999
2001-08-02 01:17:57 51°13.676 2°55.926     181.5 -999
2001-08-02 01:18:02 51°13.676 2°55.926 0.2   185.6 -999
2001-08-02 01:18:07 51°13.676 2°55.926 0.2   194.4 -999
2001-08-02 01:18:12 51°13.676 2°55.926 0.3   219.4 -999
2001-08-02 01:18:17 51°13.676 2°55.926 0.3   207.6 -999
2001-08-02 01:18:22 51°13.676 2°55.926 0.3   197.9 -999
2001-08-02 01:18:27 51°13.676 2°55.926 0.5   175.8 -999
2001-08-02 01:18:32 51°13.676 2°55.926 0.3   213.2 -999
2001-08-02 01:18:37 51°13.676 2°55.925 0.3   254.1 -999
2001-08-02 01:18:42 51°13.676 2°55.925 0.3   254.1 -999
2001-08-02 01:18:47 51°13.676 2°55.925 0.2   322.7 -999
2001-08-02 01:18:52 51°13.676 2°55.925 0.2   327.3 -999
2001-08-02 01:18:57 51°13.676 2°55.925     335.7 -999
2001-08-02 01:19:02 51°13.676 2°55.925     345.8 -999
2001-08-02 01:19:07 51°13.676 2°55.925     77.6 -999
2001-08-02 01:19:12 51°13.676 2°55.926 359.8   151.2 -999
2001-08-02 01:19:17 51°13.676 2°55.926 359.8   159.9 -999
2001-08-02 01:19:22 51°13.676 2°55.926 359.8   181 -999
2001-08-02 01:19:27 51°13.676 2°55.926     206.1 -999
2001-08-02 01:19:32 51°13.676 2°55.926     217.8 -999
2001-08-02 01:19:37 51°13.676 2°55.926 0.2   197.6 -999
2001-08-02 01:19:42 51°13.676 2°55.926 0.2   183.2 -999
2001-08-02 01:19:47 51°13.676 2°55.926 0.3   183.6 -999
2001-08-02 01:19:52 51°13.676 2°55.925 0.3   197.3 -999
2001-08-02 01:19:57 51°13.676 2°55.925 0.5   194.9 -999
2001-08-02 01:20:02 51°13.676 2°55.925 0.5   191.1 -999
2001-08-02 01:20:07 51°13.676 2°55.925 0.5   181.1 -999
2001-08-02 01:20:12 51°13.676 2°55.925 0.5   206.7 -999
2001-08-02 01:20:17 51°13.676 2°55.925 0.7   215.4 -999
2001-08-02 01:20:22 51°13.676 2°55.925 0.5   171 -999
2001-08-02 01:20:27 51°13.676 2°55.925 0.3   64 -999
2001-08-02 01:20:32 51°13.677 2°55.925 0.3   53.5 -999
2001-08-02 01:20:37 51°13.677 2°55.925 0.2   40.5 -999
2001-08-02 01:20:42 51°13.677 2°55.925     29.3 -999
2001-08-02 01:20:47 51°13.677 2°55.925     13.2 -999
2001-08-02 01:20:52 51°13.677 2°55.925     17.9 -999
2001-08-02 01:20:57 51°13.677 2°55.925 359.8   50.1 -999
2001-08-02 01:21:02 51°13.677 2°55.925 359.8   52.4 -999
2001-08-02 01:21:07 51°13.677 2°55.925 359.7   67.3 -999
2001-08-02 01:21:12 51°13.677 2°55.925 359.8   97.9 -999
2001-08-02 01:21:17 51°13.677 2°55.925 359.8   151.4 -999
2001-08-02 01:21:22 51°13.677 2°55.925     146.7 -999
2001-08-02 01:21:27 51°13.677 2°55.925     145 -999
2001-08-02 01:21:32 51°13.677 2°55.925 0.2   172.3 -999
2001-08-02 01:21:37 51°13.677 2°55.925 0.2   231 -999
2001-08-02 01:21:42 51°13.677 2°55.925 0.3   201.2 -999
2001-08-02 01:21:47 51°13.677 2°55.925 0.3   187.1 -999
2001-08-02 01:21:52 51°13.677 2°55.925 0.3   192.4 -999
2001-08-02 01:21:57 51°13.677 2°55.925 0.5   167.2 -999
2001-08-02 01:22:02 51°13.677 2°55.925 0.5   161.3 -999
2001-08-02 01:22:07 51°13.677 2°55.925 0.3   211.8 -999
2001-08-02 01:22:12 51°13.677 2°55.925 0.3   232.6 -999
2001-08-02 01:22:17 51°13.677 2°55.925 0.3   233.2 -999
2001-08-02 01:22:22 51°13.677 2°55.925 0.2   171.1 -999
2001-08-02 01:22:27 51°13.677 2°55.925 0.2   132.8 -999
2001-08-02 01:22:32 51°13.677 2°55.925     65.3 -999
2001-08-02 01:22:37 51°13.677 2°55.925     35.9 -999
2001-08-02 01:22:42 51°13.677 2°55.925     353 -999
2001-08-02 01:22:47 51°13.677 2°55.925 359.8   322.3 -999
2001-08-02 01:22:52 51°13.677 2°55.925 359.8   155.3 -999
2001-08-02 01:22:57 51°13.677 2°55.925 359.8   189.3 -999
2001-08-02 01:23:02 51°13.677 2°55.925 359.8   209.6 -999
2001-08-02 01:23:07 51°13.677 2°55.925     180 -999
2001-08-02 01:23:12 51°13.677 2°55.925     181.3 -999
2001-08-02 01:23:17 51°13.677 2°55.925     152.4 -999
2001-08-02 01:23:22 51°13.677 2°55.925 0.2   206.6 -999
2001-08-02 01:23:27 51°13.677 2°55.925 0.2   237.5 -999
2001-08-02 01:23:32 51°13.677 2°55.925 0.2   201 -999
2001-08-02 01:23:37 51°13.677 2°55.925 0.3   148.8 -999
2001-08-02 01:23:42 51°13.677 2°55.925 0.3   137.4 -999
2001-08-02 01:23:47 51°13.677 2°55.925 0.3   214.7 -999
2001-08-02 01:23:52 51°13.677 2°55.925 0.5   221.7 -999
2001-08-02 01:23:57 51°13.677 2°55.925 0.5   166.9 -999
2001-08-02 01:24:02 51°13.677 2°55.925 0.5   183.2 -999
2001-08-02 01:24:07 51°13.677 2°55.925 0.5   169.4 -999
2001-08-02 01:24:12 51°13.677 2°55.925 0.5   145.5 -999
2001-08-02 01:24:17 51°13.677 2°55.925 0.5   68.1 -999
2001-08-02 01:24:22 51°13.677 2°55.925 0.3   58.3 -999
2001-08-02 01:24:27 51°13.677 2°55.925 0.2   324.8 -999
2001-08-02 01:24:32 51°13.677 2°55.925 0.2   349.4 -999
2001-08-02 01:24:37 51°13.677 2°55.925     335.1 -999
2001-08-02 01:24:42 51°13.677 2°55.925     341 -999
2001-08-02 01:24:47 51°13.677 2°55.925     111.6 -999
2001-08-02 01:24:52 51°13.677 2°55.925 359.8   131.4 -999
2001-08-02 01:24:57 51°13.677 2°55.925 359.8   166.9 -999
2001-08-02 01:25:02 51°13.677 2°55.925 359.8   235.5 -999
2001-08-02 01:25:07 51°13.677 2°55.925 359.8   242.7 -999
2001-08-02 01:25:12 51°13.677 2°55.925 359.8   145.6 -999
2001-08-02 01:25:17 51°13.677 2°55.925     178.6 -999
2001-08-02 01:25:22 51°13.677 2°55.925     193.2 -999
2001-08-02 01:25:27 51°13.677 2°55.925 0.2   218.3 -999
2001-08-02 01:25:32 51°13.677 2°55.925 0.2   220.6 -999
2001-08-02 01:25:37 51°13.677 2°55.925 0.2   171.9 -999
2001-08-02 01:25:42 51°13.677 2°55.925 0.3   151.8 -999
2001-08-02 01:25:47 51°13.677 2°55.925 0.3   176.1 -999
2001-08-02 01:25:52 51°13.677 2°55.925 0.5   176.8 -999
2001-08-02 01:25:57 51°13.677 2°55.925 0.5   206.6 -999
2001-08-02 01:26:02 51°13.677 2°55.925 0.5   206.5 -999
2001-08-02 01:26:07 51°13.677 2°55.925 0.7   74.3 -999
2001-08-02 01:26:12 51°13.677 2°55.925 0.7   107.4 -999
2001-08-02 01:26:17 51°13.677 2°55.925 0.7   213.7 -999
2001-08-02 01:26:22 51°13.677 2°55.925 0.7   156.4 -999
2001-08-02 01:26:27 51°13.677 2°55.925 0.5   155.1 -999
2001-08-02 01:26:32 51°13.677 2°55.925 0.5   104.3 -999
2001-08-02 01:26:37 51°13.677 2°55.925 0.5   95.1 -999
2001-08-02 01:26:42 51°13.677 2°55.925 0.3   77 -999
2001-08-02 01:26:47 51°13.677 2°55.925 0.3   221.4 -999
2001-08-02 01:26:52 51°13.677 2°55.925 0.3   158.8 -999
2001-08-02 01:26:57 51°13.677 2°55.925 0.2   124 -999
2001-08-02 01:27:02 51°13.677 2°55.925 0.2   67.1 -999
2001-08-02 01:27:07 51°13.677 2°55.925     79.3 -999
2001-08-02 01:27:12 51°13.677 2°55.925     113.5 -999
2001-08-02 01:27:17 51°13.677 2°55.926     129.6 -999
2001-08-02 01:27:22 51°13.677 2°55.926     177.2 -999
2001-08-02 01:27:27 51°13.677 2°55.926     250.6 -999
2001-08-02 01:27:32 51°13.677 2°55.926     266.2 -999
2001-08-02 01:27:37 51°13.677 2°55.926     350.8 -999
2001-08-02 01:27:42 51°13.677 2°55.926     79.3 -999
2001-08-02 01:27:47 51°13.677 2°55.926     59 -999
2001-08-02 01:27:52 51°13.677 2°55.926     134.9 -999
2001-08-02 01:27:57 51°13.677 2°55.926     125.8 -999
2001-08-02 01:28:02 51°13.677 2°55.926     158.1 -999
2001-08-02 01:28:07 51°13.677 2°55.926     124.2 -999
2001-08-02 01:28:12 51°13.677 2°55.926     285.8 -999
2001-08-02 01:28:17 51°13.677 2°55.926     313.3 -999
2001-08-02 01:28:22 51°13.677 2°55.926 0.2   75 -999
2001-08-02 01:28:27 51°13.677 2°55.926 0.2   154.5 -999
2001-08-02 01:28:32 51°13.677 2°55.926 0.2   152.5 -999
2001-08-02 01:28:37 51°13.677 2°55.926 0.2   138.3 -999
2001-08-02 01:28:42 51°13.677 2°55.926 0.2   156.6 -999
2001-08-02 01:28:47 51°13.677 2°55.925 0.2   166.4 -999
2001-08-02 01:28:52 51°13.677 2°55.925 0.2   106.2 -999
2001-08-02 01:28:57 51°13.677 2°55.925 0.2   112.6 -999
2001-08-02 01:29:02 51°13.677 2°55.925 0.2   57.2 -999
2001-08-02 01:29:07 51°13.677 2°55.925 0.2   45.5 -999
2001-08-02 01:29:12 51°13.677 2°55.925 0.2   129.3 -999
2001-08-02 01:29:17 51°13.677 2°55.925     140.5 -999
2001-08-02 01:29:22 51°13.677 2°55.925     137.7 -999
2001-08-02 01:29:27 51°13.677 2°55.926     139.2 -999
2001-08-02 01:29:32 51°13.677 2°55.926     205.1 -999
2001-08-02 01:29:37 51°13.677 2°55.926     349.6 -999
2001-08-02 01:29:42 51°13.677 2°55.926     52.5 -999
2001-08-02 01:29:47 51°13.677 2°55.926     139.8 -999
2001-08-02 01:29:52 51°13.677 2°55.926     147.5 -999
2001-08-02 01:29:57 51°13.677 2°55.926     140 -999
2001-08-02 01:30:02 51°13.677 2°55.926     113.7 -999
2001-08-02 01:30:07 51°13.677 2°55.926     163.8 -999
2001-08-02 01:30:12 51°13.677 2°55.926     260.9 -999
2001-08-02 01:30:17 51°13.677 2°55.926 0.2   265.8 -999
2001-08-02 01:30:22 51°13.677 2°55.926 0.2   277.1 -999
2001-08-02 01:30:27 51°13.677 2°55.926 0.2   274.2 -999
2001-08-02 01:30:32 51°13.677 2°55.926 0.2   211.6 -999
2001-08-02 01:30:37 51°13.677 2°55.926 0.2   236.3 -999
2001-08-02 01:30:42 51°13.677 2°55.926 0.2   240.4 -999
2001-08-02 01:30:47 51°13.677 2°55.926 0.2   226.9 -999
2001-08-02 01:30:52 51°13.677 2°55.926 0.2   154.8 -999
2001-08-02 01:30:57 51°13.677 2°55.926     92.7 -999
2001-08-02 01:31:02 51°13.677 2°55.926     95.6 -999
2001-08-02 01:31:07 51°13.677 2°55.926     50.3 -999
2001-08-02 01:31:12 51°13.677 2°55.926     3.5 -999
2001-08-02 01:31:17 51°13.677 2°55.926     272.5 -999
2001-08-02 01:31:22 51°13.677 2°55.926     160.3 -999
2001-08-02 01:31:27 51°13.677 2°55.926     176.4 -999
2001-08-02 01:31:32 51°13.677 2°55.926 0.2   171.5 -999
2001-08-02 01:31:37 51°13.677 2°55.926 0.2   132.5 -999
2001-08-02 01:31:42 51°13.677 2°55.926 0.2   135.1 -999
2001-08-02 01:31:47 51°13.677 2°55.926 0.2   195.5 -999
2001-08-02 01:31:52 51°13.677 2°55.926 0.3   193.3 -999
2001-08-02 01:31:57 51°13.677 2°55.926 0.3   193.1 -999
2001-08-02 01:32:02 51°13.677 2°55.926 0.3   221.1 -999
2001-08-02 01:32:07 51°13.677 2°55.926 0.3   137.7 -999
2001-08-02 01:32:12 51°13.677 2°55.926 0.3   101.9 -999
2001-08-02 01:32:17 51°13.677 2°55.926 0.2   226.6 -999
2001-08-02 01:32:22 51°13.677 2°55.926 0.2   296.9 -999
2001-08-02 01:32:27 51°13.677 2°55.926 0.2   19 -999
2001-08-02 01:32:32 51°13.677 2°55.926 0.2   54.5 -999
2001-08-02 01:32:37 51°13.677 2°55.925 0.2   38.8 -999
2001-08-02 01:32:42 51°13.677 2°55.925 0.2   270.5 -999
2001-08-02 01:32:47 51°13.677 2°55.925     48.9 -999
2001-08-02 01:32:52 51°13.677 2°55.925     102.3 -999
2001-08-02 01:32:57 51°13.677 2°55.925     69.7 -999
2001-08-02 01:33:02 51°13.677 2°55.925     77.9 -999
2001-08-02 01:33:07 51°13.677 2°55.925     144.3 -999
2001-08-02 01:33:12 51°13.677 2°55.925     220.4 -999
2001-08-02 01:33:17 51°13.677 2°55.925     238.6 -999
2001-08-02 01:33:22 51°13.677 2°55.925 0.2   234.9 -999
2001-08-02 01:33:27 51°13.677 2°55.925 0.2   259.1 -999
2001-08-02 01:33:32 51°13.677 2°55.925 0.2   282.6 -999
2001-08-02 01:33:37 51°13.677 2°55.925 0.2   319.4 -999
2001-08-02 01:33:42 51°13.677 2°55.925     141.9 -999
2001-08-02 01:33:47 51°13.677 2°55.925     81 -999
2001-08-02 01:33:52 51°13.677 2°55.925     113.6 -999
2001-08-02 01:33:57 51°13.677 2°55.925     27.8 -999
2001-08-02 01:34:02 51°13.677 2°55.925     326.2 -999
2001-08-02 01:34:07 51°13.677 2°55.925     263.7 -999
2001-08-02 01:34:12 51°13.677 2°55.925     232.8 -999
2001-08-02 01:34:17 51°13.677 2°55.925 0.2   227.7 -999
2001-08-02 01:34:22 51°13.677 2°55.925 0.2   90.9 -999
2001-08-02 01:34:27 51°13.677 2°55.925 0.2   102.1 -999
2001-08-02 01:34:32 51°13.677 2°55.925 0.2   159.5 -999
2001-08-02 01:34:37 51°13.677 2°55.925 0.2   238.4 -999
2001-08-02 01:34:42 51°13.677 2°55.925 0.2   287.7 -999
2001-08-02 01:34:47 51°13.677 2°55.925 0.2   16.6 -999
2001-08-02 01:34:52 51°13.677 2°55.925 0.2   38.4 -999
2001-08-02 01:34:57 51°13.677 2°55.925     117.9 -999
2001-08-02 01:35:02 51°13.677 2°55.925     121.9 -999
2001-08-02 01:35:07 51°13.677 2°55.925     187.1 -999
2001-08-02 01:35:12 51°13.677 2°55.925     195.2 -999
2001-08-02 01:35:17 51°13.677 2°55.925 359.8   245.4 -999
2001-08-02 01:35:22 51°13.677 2°55.925 359.8   333.2 -999
2001-08-02 01:35:27 51°13.677 2°55.925 359.8   206.7 -999
2001-08-02 01:35:32 51°13.677 2°55.925 359.8   205 -999
2001-08-02 01:35:37 51°13.677 2°55.925 359.8   125.9 -999
2001-08-02 01:35:42 51°13.677 2°55.925 359.8   50.2 -999
2001-08-02 01:35:47 51°13.677 2°55.925 359.8   298.7 -999
2001-08-02 01:35:52 51°13.677 2°55.925 359.8   286.7 -999
2001-08-02 01:35:57 51°13.677 2°55.925     234.8 -999
2001-08-02 01:36:02 51°13.677 2°55.925     232.4 -999
2001-08-02 01:36:07 51°13.677 2°55.925     197.5 -999
2001-08-02 01:36:12 51°13.677 2°55.925     142 -999
2001-08-02 01:36:17 51°13.677 2°55.925     136.3 -999
2001-08-02 01:36:22 51°13.677 2°55.925     176.7 -999
2001-08-02 01:36:27 51°13.677 2°55.925     225.4 -999
2001-08-02 01:36:32 51°13.677 2°55.925     274.4 -999
2001-08-02 01:36:37 51°13.677 2°55.925 0.2   302.8 -999
2001-08-02 01:36:42 51°13.677 2°55.925 0.2   265.5 -999
2001-08-02 01:36:47 51°13.677 2°55.925 0.2   191.2 -999
2001-08-02 01:36:52 51°13.677 2°55.925 0.2   114.7 -999
2001-08-02 01:36:57 51°13.677 2°55.925     72.2 -999
2001-08-02 01:37:02 51°13.677 2°55.925     242.2 -999
2001-08-02 01:37:07 51°13.677 2°55.925     243.8 -999
2001-08-02 01:37:12 51°13.677 2°55.925 0.2   227.4 -999
2001-08-02 01:37:17 51°13.677 2°55.925 0.2   207.5 -999
2001-08-02 01:37:22 51°13.677 2°55.925 0.2   180.1 -999
2001-08-02 01:37:27 51°13.677 2°55.925 0.2   149.3 -999
2001-08-02 01:37:32 51°13.677 2°55.925 0.2   120.5 -999
2001-08-02 01:37:37 51°13.677 2°55.925 0.2   121.7 -999
2001-08-02 01:37:42 51°13.677 2°55.925     115.1 -999
2001-08-02 01:37:47 51°13.677 2°55.925     341.7 -999
2001-08-02 01:37:52 51°13.677 2°55.925 0.2   348.4 -999
2001-08-02 01:37:57 51°13.677 2°55.925 0.2   340.5 -999
2001-08-02 01:38:02 51°13.677 2°55.925 0.2   35.3 -999
2001-08-02 01:38:07 51°13.677 2°55.925     84.2 -999
2001-08-02 01:38:12 51°13.677 2°55.925     111.8 -999
2001-08-02 01:38:17 51°13.677 2°55.925 359.8   107.6 -999
2001-08-02 01:38:22 51°13.677 2°55.925 359.8   215.3 -999
2001-08-02 01:38:27 51°13.677 2°55.925     227.5 -999
2001-08-02 01:38:32 51°13.677 2°55.925     224.2 -999
2001-08-02 01:38:37 51°13.677 2°55.925 0.2   192.3 -999
2001-08-02 01:38:42 51°13.677 2°55.925 0.2   183.8 -999
2001-08-02 01:38:47 51°13.677 2°55.925 0.2   195.6 -999
2001-08-02 01:38:52 51°13.677 2°55.925 0.2   173.3 -999
2001-08-02 01:38:57 51°13.677 2°55.925 0.2   332.8 -999
2001-08-02 01:39:02 51°13.677 2°55.925 0.2   324 -999
2001-08-02 01:39:07 51°13.677 2°55.925 0.2   24 -999
2001-08-02 01:39:12 51°13.677 2°55.925 0.2   116.1 -999
2001-08-02 01:39:17 51°13.677 2°55.925     255.8 -999
2001-08-02 01:39:22 51°13.677 2°55.925     201.4 -999
2001-08-02 01:39:27 51°13.677 2°55.925     146.1 -999
2001-08-02 01:39:32 51°13.677 2°55.925     132.6 -999
2001-08-02 01:39:37 51°13.677 2°55.925     159 -999
2001-08-02 01:39:42 51°13.677 2°55.925     205.2 -999
2001-08-02 01:39:47 51°13.677 2°55.925     216.1 -999
2001-08-02 01:39:52 51°13.677 2°55.925 359.8   145.9 -999
2001-08-02 01:39:57 51°13.677 2°55.925 359.8   136.5 -999
2001-08-02 01:40:02 51°13.677 2°55.925 359.8   32.8 -999
2001-08-02 01:40:07 51°13.677 2°55.925 359.8   91.9 -999
2001-08-02 01:40:12 51°13.677 2°55.925 359.7   75.3 -999
2001-08-02 01:40:17 51°13.677 2°55.925 359.7   8.8 -999
2001-08-02 01:40:22 51°13.677 2°55.925 359.7   357.8 -999
2001-08-02 01:40:27 51°13.677 2°55.925 359.7   42.8 -999
2001-08-02 01:40:32 51°13.677 2°55.925 359.7   100.1 -999
2001-08-02 01:40:37 51°13.677 2°55.925 359.8   197.6 -999
2001-08-02 01:40:42 51°13.677 2°55.925 359.8   103.9 -999
2001-08-02 01:40:47 51°13.677 2°55.925     136.4 -999
2001-08-02 01:40:52 51°13.677 2°55.925     122.5 -999
2001-08-02 01:40:57 51°13.677 2°55.925     111.9 -999
2001-08-02 01:41:02 51°13.677 2°55.925     177.6 -999
2001-08-02 01:41:07 51°13.677 2°55.925 0.2   279.4 -999
2001-08-02 01:41:12 51°13.677 2°55.924 0.2   285.1 -999
2001-08-02 01:41:17 51°13.677 2°55.924 0.2   246.5 -999
2001-08-02 01:41:22 51°13.677 2°55.924 0.2   115.9 -999
2001-08-02 01:41:27 51°13.677 2°55.924 0.2   114.8 -999
2001-08-02 01:41:32 51°13.677 2°55.924 0.2   134 -999
2001-08-02 01:41:37 51°13.677 2°55.924 0.2   171.7 -999
2001-08-02 01:41:42 51°13.677 2°55.924 0.3   173.3 -999
2001-08-02 01:41:47 51°13.677 2°55.924 0.5   244.7 -999
2001-08-02 01:41:52 51°13.677 2°55.924 0.5   252.8 -999
2001-08-02 01:41:57 51°13.677 2°55.924 0.7   239 -999
2001-08-02 01:42:02 51°13.677 2°55.924 0.7   149 -999
2001-08-02 01:42:07 51°13.677 2°55.924 0.8   97.1 -999
2001-08-02 01:42:12 51°13.677 2°55.924 0.7   109 -999
2001-08-02 01:42:17 51°13.677 2°55.924 0.7   331.7 -999
2001-08-02 01:42:22 51°13.677 2°55.924 0.7   334.3 -999
2001-08-02 01:42:27 51°13.677 2°55.924 0.5   343.9 -999
2001-08-02 01:42:32 51°13.677 2°55.924 0.5   22.7 -999
2001-08-02 01:42:37 51°13.677 2°55.924 0.3   32.7 -999
2001-08-02 01:42:42 51°13.677 2°55.924 0.2   335.3 -999
2001-08-02 01:42:47 51°13.677 2°55.924 0.2   338.7 -999
2001-08-02 01:42:52 51°13.677 2°55.924     0.5 -999
2001-08-02 01:42:57 51°13.677 2°55.924     334.2 -999
2001-08-02 01:43:02 51°13.677 2°55.924 359.8   47.8 -999
2001-08-02 01:43:07 51°13.677 2°55.924 359.8   13.2 -999
2001-08-02 01:43:12 51°13.677 2°55.924 359.8   7.9 -999
2001-08-02 01:43:17 51°13.677 2°55.924 359.8   37.9 -999
2001-08-02 01:43:22 51°13.677 2°55.924 359.7   34.4 -999
2001-08-02 01:43:27 51°13.677 2°55.924 359.7   114.7 -999
2001-08-02 01:43:32 51°13.677 2°55.924 359.7   86.1 -999
2001-08-02 01:43:37 51°13.677 2°55.924 359.8   128.5 -999
2001-08-02 01:43:42 51°13.677 2°55.924 359.8   218.1 -999
2001-08-02 01:43:47 51°13.677 2°55.924 359.8   207.9 -999
2001-08-02 01:43:52 51°13.677 2°55.924     212.1 -999
2001-08-02 01:43:57 51°13.677 2°55.924     181.3 -999
2001-08-02 01:44:02 51°13.677 2°55.924     171.8 -999
2001-08-02 01:44:07 51°13.677 2°55.924     142.8 -999
2001-08-02 01:44:12 51°13.677 2°55.924     235 -999
2001-08-02 01:44:17 51°13.677 2°55.924     280.9 -999
2001-08-02 01:44:22 51°13.677 2°55.924     49.9 -999
2001-08-02 01:44:27 51°13.677 2°55.924     62.6 -999
2001-08-02 01:44:32 51°13.677 2°55.924     9.8 -999
2001-08-02 01:44:37 51°13.677 2°55.924 359.8   345.1 -999
2001-08-02 01:44:42 51°13.677 2°55.924 359.8   30.1 -999
2001-08-02 01:44:47 51°13.677 2°55.924 359.8   51.5 -999
2001-08-02 01:44:52 51°13.677 2°55.924 359.8   68.2 -999
2001-08-02 01:44:57 51°13.677 2°55.924 359.7   155.4 -999
2001-08-02 01:45:02 51°13.677 2°55.924 359.8   234.5 -999
2001-08-02 01:45:07 51°13.676 2°55.924 359.8   230.2 -999
2001-08-02 01:45:12 51°13.676 2°55.924 359.8   230.4 -999
2001-08-02 01:45:17 51°13.676 2°55.924     201.7 -999
2001-08-02 01:45:22 51°13.676 2°55.924     152.1 -999
2001-08-02 01:45:27 51°13.676 2°55.924 0.2   175.3 -999
2001-08-02 01:45:32 51°13.676 2°55.924 0.2   184.5 -999
2001-08-02 01:45:37 51°13.676 2°55.924 0.2   188.4 -999
2001-08-02 01:45:42 51°13.676 2°55.924 0.3   206 -999
2001-08-02 01:45:47 51°13.676 2°55.924 0.5   219.9 -999
2001-08-02 01:45:52 51°13.676 2°55.923 0.5   225.1 -999
2001-08-02 01:45:57 51°13.676 2°55.923 0.7   137.6 -999
2001-08-02 01:46:02 51°13.676 2°55.924 0.7   153.9 -999
2001-08-02 01:46:07 51°13.676 2°55.924 0.7   25.7 -999
2001-08-02 01:46:12 51°13.676 2°55.923 0.5   26.4 -999
2001-08-02 01:46:17 51°13.676 2°55.923 0.3   276.4 -999
2001-08-02 01:46:22 51°13.676 2°55.923 0.3   272.6 -999
2001-08-02 01:46:27 51°13.676 2°55.923 0.2   300.9 -999
2001-08-02 01:46:32 51°13.676 2°55.923 0.2   312.8 -999
2001-08-02 01:46:37 51°13.676 2°55.923     291.7 -999
2001-08-02 01:46:42 51°13.676 2°55.923 359.8   260.8 -999
2001-08-02 01:46:47 51°13.676 2°55.923 359.8   265.3 -999
2001-08-02 01:46:52 51°13.676 2°55.923 359.8   279.3 -999
2001-08-02 01:46:57 51°13.676 2°55.923 359.7   337.8 -999
2001-08-02 01:47:02 51°13.676 2°55.923 359.7   41.9 -999
2001-08-02 01:47:07 51°13.676 2°55.923 359.5   223 -999
2001-08-02 01:47:12 51°13.676 2°55.923 359.7   216.4 -999
2001-08-02 01:47:17 51°13.676 2°55.923 359.7   219.7 -999
2001-08-02 01:47:22 51°13.676 2°55.923 359.7   87.2 -999
2001-08-02 01:47:27 51°13.676 2°55.923 359.8   206.8 -999
2001-08-02 01:47:32 51°13.676 2°55.923 359.8   168.5 -999
2001-08-02 01:47:37 51°13.676 2°55.923     153.4 -999
2001-08-02 01:47:42 51°13.676 2°55.923 0.2   171.8 -999
2001-08-02 01:47:47 51°13.676 2°55.923 0.2   191 -999
2001-08-02 01:47:52 51°13.676 2°55.924 0.5   203 -999
2001-08-02 01:47:57 51°13.676 2°55.924 0.5   342 -999
2001-08-02 01:48:02 51°13.676 2°55.924 0.7   127 -999
2001-08-02 01:48:07 51°13.676 2°55.924 0.7   70.3 -999
2001-08-02 01:48:12 51°13.676 2°55.924 0.7   16.7 -999
2001-08-02 01:48:17 51°13.676 2°55.923 0.7   354.9 -999
2001-08-02 01:48:22 51°13.676 2°55.923 0.7   334.7 -999
2001-08-02 01:48:27 51°13.676 2°55.923 0.7   281.3 -999
2001-08-02 01:48:32 51°13.676 2°55.923 0.5   8.1 -999
2001-08-02 01:48:37 51°13.676 2°55.923 0.5   45 -999
2001-08-02 01:48:42 51°13.676 2°55.923 0.5   34.8 -999
2001-08-02 01:48:47 51°13.676 2°55.923 0.3   292.6 -999
2001-08-02 01:48:52 51°13.676 2°55.923 0.3   202.7 -999
2001-08-02 01:48:57 51°13.676 2°55.923 0.3   228.6 -999
2001-08-02 01:49:02 51°13.676 2°55.923 0.3   197.4 -999
2001-08-02 01:49:07 51°13.676 2°55.923 0.3   193 -999
2001-08-02 01:49:12 51°13.676 2°55.923 0.3   246.4 -999
2001-08-02 01:49:17 51°13.677 2°55.923 0.2   325 -999
2001-08-02 01:49:22 51°13.677 2°55.923 0.2   339.9 -999
2001-08-02 01:49:27 51°13.677 2°55.923 0.2   303.9 -999
2001-08-02 01:49:32 51°13.677 2°55.923     218.3 -999
2001-08-02 01:49:37 51°13.677 2°55.923     229.9 -999
2001-08-02 01:49:42 51°13.677 2°55.923     233.9 -999
2001-08-02 01:49:47 51°13.677 2°55.923 359.8   203.6 -999
2001-08-02 01:49:52 51°13.677 2°55.924 359.8   13.5 -999
2001-08-02 01:49:57 51°13.677 2°55.924 359.7   354.1 -999
2001-08-02 01:50:02 51°13.677 2°55.924 359.7   311.4 -999
2001-08-02 01:50:07 51°13.677 2°55.924 359.7   268.5 -999
2001-08-02 01:50:12 51°13.677 2°55.924 359.7   201.6 -999
2001-08-02 01:50:17 51°13.677 2°55.924 359.7   168.6 -999
2001-08-02 01:50:22 51°13.677 2°55.924 359.5   190.2 -999
2001-08-02 01:50:27 51°13.677 2°55.924 359.5   308 -999
2001-08-02 01:50:32 51°13.677 2°55.924 359.5   271.2 -999
2001-08-02 01:50:37 51°13.677 2°55.924 359.5   204.7 -999
2001-08-02 01:50:42 51°13.677 2°55.924 359.5   197.4 -999
2001-08-02 01:50:47 51°13.677 2°55.924 359.5   222 -999
2001-08-02 01:50:52 51°13.677 2°55.924 359.5   344.7 -999
2001-08-02 01:50:57 51°13.677 2°55.924 359.5   355 -999
2001-08-02 01:51:02 51°13.677 2°55.924 359.7   343.5 -999
2001-08-02 01:51:07 51°13.677 2°55.924 359.7   197.7 -999
2001-08-02 01:51:12 51°13.677 2°55.924 359.7   199.7 -999
2001-08-02 01:51:17 51°13.677 2°55.924 359.7   197.6 -999
2001-08-02 01:51:22 51°13.677 2°55.924 359.7   191.8 -999
2001-08-02 01:51:27 51°13.677 2°55.924 359.7   181.9 -999
2001-08-02 01:51:32 51°13.677 2°55.924 359.5   89.1 -999
2001-08-02 01:51:37 51°13.677 2°55.924 359.5   177.3 -999
2001-08-02 01:51:42 51°13.677 2°55.924 359.3   214.1 -999
2001-08-02 01:51:47 51°13.677 2°55.924 359.3   206.7 -999
2001-08-02 01:51:52 51°13.677 2°55.924 359.5   197.5 -999
2001-08-02 01:51:57 51°13.677 2°55.924 359.5   199.3 -999
2001-08-02 01:52:02 51°13.677 2°55.924 359.7   236.3 -999
2001-08-02 01:52:07 51°13.677 2°55.924 359.8   256.5 -999
2001-08-02 01:52:12 51°13.677 2°55.924     222.5 -999
2001-08-02 01:52:17 51°13.677 2°55.924 0.2   207.5 -999
2001-08-02 01:52:22 51°13.676 2°55.924 0.2   180.7 -999
2001-08-02 01:52:27 51°13.676 2°55.924 0.3   183 -999
2001-08-02 01:52:32 51°13.676 2°55.924 0.5   230.7 -999
2001-08-02 01:52:37 51°13.676 2°55.924 0.7   207.4 -999
2001-08-02 01:52:42 51°13.676 2°55.924 0.7   172.1 -999
2001-08-02 01:52:47 51°13.677 2°55.924 0.7   352.8 -999
2001-08-02 01:52:52 51°13.677 2°55.924 0.5   356.8 -999
2001-08-02 01:52:57 51°13.677 2°55.924 0.3   24.8 -999
2001-08-02 01:53:02 51°13.677 2°55.924     42.7 -999
2001-08-02 01:53:07 51°13.677 2°55.924     349.9 -999
2001-08-02 01:53:12 51°13.677 2°55.924 359.8   292.4 -999
2001-08-02 01:53:17 51°13.677 2°55.924 359.8   315.4 -999
2001-08-02 01:53:22 51°13.677 2°55.924 359.7   315.6 -999
2001-08-02 01:53:27 51°13.677 2°55.924 359.7   186 -999
2001-08-02 01:53:32 51°13.677 2°55.924 359.5   183.7 -999
2001-08-02 01:53:37 51°13.677 2°55.924 359.5   209.6 -999
2001-08-02 01:53:42 51°13.677 2°55.924 359.5   241.5 -999
2001-08-02 01:53:47 51°13.677 2°55.924 359.7   221.5 -999
2001-08-02 01:53:52 51°13.677 2°55.924 359.7   205.8 -999
2001-08-02 01:53:57 51°13.677 2°55.924 359.7   203.5 -999
2001-08-02 01:54:02 51°13.677 2°55.924 359.8   191.1 -999
2001-08-02 01:54:07 51°13.677 2°55.924     197.9 -999
2001-08-02 01:54:12 51°13.677 2°55.924 0.3   338.5 -999
2001-08-02 01:54:17 51°13.677 2°55.924 0.3   184.8 -999
2001-08-02 01:54:22 51°13.677 2°55.924 0.3   162.5 -999
2001-08-02 01:54:27 51°13.677 2°55.924 0.5   43.9 -999
2001-08-02 01:54:32 51°13.677 2°55.924 0.5   358.1 -999
2001-08-02 01:54:37 51°13.677 2°55.924 0.5   339.8 -999
2001-08-02 01:54:42 51°13.677 2°55.924 0.3   0.8 -999
2001-08-02 01:54:47 51°13.677 2°55.924 0.3   23.9 -999
2001-08-02 01:54:52 51°13.677 2°55.924 0.3   340.7 -999
2001-08-02 01:54:57 51°13.677 2°55.924 0.2   213.5 -999
2001-08-02 01:55:02 51°13.677 2°55.924 0.3   248.3 -999
2001-08-02 01:55:07 51°13.677 2°55.924 0.3   312.1 -999
2001-08-02 01:55:12 51°13.677 2°55.924 0.3   237.2 -999
2001-08-02 01:55:17 51°13.677 2°55.924 0.3   239.3 -999
2001-08-02 01:55:22 51°13.677 2°55.924 0.3   225 -999
2001-08-02 01:55:27 51°13.677 2°55.924 0.2   223.2 -999
2001-08-02 01:55:32 51°13.677 2°55.924 0.2   257.1 -999
2001-08-02 01:55:37 51°13.677 2°55.924 0.3   226 -999
2001-08-02 01:55:42 51°13.677 2°55.924 0.3   187.4 -999
2001-08-02 01:55:47 51°13.677 2°55.924 0.3   344.9 -999
2001-08-02 01:55:52 51°13.677 2°55.924 0.3   351.6 -999
2001-08-02 01:55:57 51°13.677 2°55.924 0.3   12.6 -999
2001-08-02 01:56:02 51°13.677 2°55.924 0.5   17.4 -999
2001-08-02 01:56:07 51°13.677 2°55.924 0.5   15.7 -999
2001-08-02 01:56:12 51°13.677 2°55.924 0.5   0.4 -999
2001-08-02 01:56:17 51°13.677 2°55.924 0.7   159.8 -999
2001-08-02 01:56:22 51°13.677 2°55.924 0.7   264.2 -999
2001-08-02 01:56:27 51°13.677 2°55.924 0.8   209.6 -999
2001-08-02 01:56:32 51°13.677 2°55.924 0.8   225.8 -999
2001-08-02 01:56:37 51°13.676 2°55.924 0.8   205.4 -999
2001-08-02 01:56:42 51°13.676 2°55.924 0.8   184.2 -999
2001-08-02 01:56:47 51°13.676 2°55.924 0.7   346.1 -999
2001-08-02 01:56:52 51°13.676 2°55.924 0.7   312.6 -999
2001-08-02 01:56:57 51°13.676 2°55.924 0.5   283.3 -999
2001-08-02 01:57:02 51°13.676 2°55.924 0.5   246.8 -999
2001-08-02 01:57:07 51°13.677 2°55.924 0.5   193.7 -999
2001-08-02 01:57:12 51°13.677 2°55.924 0.3   224.3 -999
2001-08-02 01:57:17 51°13.677 2°55.924 0.3   295.7 -999
2001-08-02 01:57:22 51°13.677 2°55.924 0.2   326.2 -999
2001-08-02 01:57:27 51°13.677 2°55.924     8.6 -999
2001-08-02 01:57:32 51°13.677 2°55.924 359.8   354 -999
2001-08-02 01:57:37 51°13.677 2°55.924 359.8   348.7 -999
2001-08-02 01:57:42 51°13.677 2°55.924 359.7   350.3 -999
2001-08-02 01:57:47 51°13.677 2°55.924 359.7   10 -999
2001-08-02 01:57:52 51°13.677 2°55.924 359.7   292.3 -999
2001-08-02 01:57:57 51°13.677 2°55.924 359.7   295.1 -999
2001-08-02 01:58:02 51°13.677 2°55.924 359.7   348.1 -999
2001-08-02 01:58:07 51°13.677 2°55.924 359.7   14.4 -999
2001-08-02 01:58:12 51°13.677 2°55.925 359.8   174 -999
2001-08-02 01:58:17 51°13.677 2°55.925 359.7   195.9 -999
2001-08-02 01:58:22 51°13.677 2°55.925 359.8   229.6 -999
2001-08-02 01:58:27 51°13.677 2°55.925 359.8   254.1 -999
2001-08-02 01:58:32 51°13.677 2°55.925 359.8   280.1 -999
2001-08-02 01:58:37 51°13.677 2°55.925 359.8   216 -999
2001-08-02 01:58:42 51°13.677 2°55.925 359.8   183.3 -999
2001-08-02 01:58:47 51°13.677 2°55.925 359.8   195.8 -999
2001-08-02 01:58:52 51°13.677 2°55.925 359.8   203.4 -999
2001-08-02 01:58:57 51°13.677 2°55.925 359.8   196.4 -999
2001-08-02 01:59:02 51°13.677 2°55.925 359.8   188.7 -999
2001-08-02 01:59:07 51°13.677 2°55.925     195.9 -999
2001-08-02 01:59:12 51°13.677 2°55.925 359.8   223.1 -999
2001-08-02 01:59:17 51°13.677 2°55.925 359.8   256.5 -999
2001-08-02 01:59:22 51°13.677 2°55.925 359.8   259.1 -999
2001-08-02 01:59:27 51°13.677 2°55.925 359.7   187.8 -999
2001-08-02 01:59:32 51°13.677 2°55.925 359.7   14.9 -999
2001-08-02 01:59:37 51°13.677 2°55.925 359.5   11.1 -999
2001-08-02 01:59:42 51°13.677 2°55.926 359.5   8.2 -999
2001-08-02 01:59:47 51°13.677 2°55.926 359.3   342.2 -999
2001-08-02 01:59:52 51°13.677 2°55.926 359.5   12.9 -999
2001-08-02 01:59:57 51°13.677 2°55.925 359.7   191.6 -999
2001-08-02 02:00:02 51°13.677 2°55.925 359.7   204.7 -999
2001-08-02 02:00:07 51°13.677 2°55.926 359.7   220.7 -999
2001-08-02 02:00:12 51°13.677 2°55.926 359.7   263.2 -999
2001-08-02 02:00:17 51°13.677 2°55.926 359.7   296 -999
2001-08-02 02:00:22 51°13.677 2°55.926 359.7   346 -999
2001-08-02 02:00:27 51°13.677 2°55.926 359.7   351.5 -999
2001-08-02 02:00:32 51°13.677 2°55.926 359.7   339.5 -999
2001-08-02 02:00:37 51°13.677 2°55.925 359.7   342.7 -999
2001-08-02 02:00:42 51°13.677 2°55.925 359.7   330.3 -999
2001-08-02 02:00:47 51°13.677 2°55.925 359.7   224.5 -999
2001-08-02 02:00:52 51°13.677 2°55.925 359.7   200.8 -999
2001-08-02 02:00:57 51°13.677 2°55.925 359.7   184.8 -999
2001-08-02 02:01:02 51°13.677 2°55.925 359.7   185.2 -999
2001-08-02 02:01:07 51°13.677 2°55.925 359.7   22.1 -999
2001-08-02 02:01:12 51°13.677 2°55.925 359.5   346.4 -999
2001-08-02 02:01:17 51°13.677 2°55.925 359.5   3.9 -999
2001-08-02 02:01:22 51°13.677 2°55.925 359.5   351.7 -999
2001-08-02 02:01:27 51°13.677 2°55.925 359.5   1.1 -999
2001-08-02 02:01:32 51°13.677 2°55.925 359.5   197.4 -999
2001-08-02 02:01:37 51°13.677 2°55.925 359.3   191.8 -999
2001-08-02 02:01:42 51°13.677 2°55.925 359.5   197.2 -999
2001-08-02 02:01:47 51°13.677 2°55.925 359.7   269.2 -999
2001-08-02 02:01:52 51°13.677 2°55.925 359.7   341.4 -999
2001-08-02 02:01:57 51°13.677 2°55.925 359.7   223.6 -999
2001-08-02 02:02:02 51°13.677 2°55.925 359.8   193.2 -999
2001-08-02 02:02:07 51°13.677 2°55.925 359.8   207.9 -999
2001-08-02 02:02:12 51°13.677 2°55.925 359.8   358 -999
2001-08-02 02:02:17 51°13.677 2°55.925 359.8   6.9 -999
2001-08-02 02:02:22 51°13.677 2°55.925 359.8   13 -999
2001-08-02 02:02:27 51°13.677 2°55.925 359.8   2.4 -999
2001-08-02 02:02:32 51°13.677 2°55.925 359.8   29.3 -999
2001-08-02 02:02:37 51°13.677 2°55.925     194.7 -999
2001-08-02 02:02:42 51°13.677 2°55.925     356.1 -999
2001-08-02 02:02:47 51°13.677 2°55.925     303.6 -999
2001-08-02 02:02:52 51°13.677 2°55.925     234.9 -999
2001-08-02 02:02:57 51°13.677 2°55.925 0.2   327 -999
2001-08-02 02:03:02 51°13.677 2°55.925 0.2   334.5 -999
2001-08-02 02:03:07 51°13.677 2°55.925 0.2   237.1 -999
2001-08-02 02:03:12 51°13.677 2°55.925     347.1 -999
2001-08-02 02:03:17 51°13.677 2°55.925     340.4 -999
2001-08-02 02:03:22 51°13.677 2°55.925 359.8   335.8 -999
2001-08-02 02:03:27 51°13.677 2°55.925 359.8   296.5 -999
2001-08-02 02:03:32 51°13.677 2°55.925 359.7   210.2 -999
2001-08-02 02:03:37 51°13.677 2°55.925 359.7   330.8 -999
2001-08-02 02:03:42 51°13.677 2°55.925 359.5   319.9 -999
2001-08-02 02:03:47 51°13.677 2°55.925 359.5   291.1 -999
2001-08-02 02:03:52 51°13.677 2°55.924 359.5   231 -999
2001-08-02 02:03:57 51°13.677 2°55.924 359.5   187.7 -999
2001-08-02 02:04:02 51°13.678 2°55.924 359.5   170.4 -999
2001-08-02 02:04:07 51°13.678 2°55.924 359.5   183.9 -999
2001-08-02 02:04:12 51°13.678 2°55.924 359.7   306.1 -999
2001-08-02 02:04:17 51°13.678 2°55.924 359.7   3.2 -999
2001-08-02 02:04:22 51°13.678 2°55.924 359.7   9.9 -999
2001-08-02 02:04:27 51°13.678 2°55.924 359.7   358.9 -999
2001-08-02 02:04:32 51°13.678 2°55.924 359.8   32 -999
2001-08-02 02:04:37 51°13.678 2°55.924 359.8   175 -999
2001-08-02 02:04:42 51°13.678 2°55.924     156.1 -999
2001-08-02 02:04:47 51°13.678 2°55.924     182.1 -999
2001-08-02 02:04:52 51°13.678 2°55.924 0.2   170.4 -999
2001-08-02 02:04:57 51°13.678 2°55.924 0.2   235.3 -999
2001-08-02 02:05:02 51°13.678 2°55.924 0.3   242.8 -999
2001-08-02 02:05:07 51°13.679 2°55.924 0.3   240.5 -999
2001-08-02 02:05:12 51°13.679 2°55.924 0.3   246.8 -999
2001-08-02 02:05:17 51°13.679 2°55.924 0.3   279.4 -999
2001-08-02 02:05:22 51°13.679 2°55.924 0.3   314.3 -999
2001-08-02 02:05:27 51°13.678 2°55.923 0.2   260.6 -999
2001-08-02 02:05:32 51°13.678 2°55.923 0.2   258.9 -999
2001-08-02 02:05:37 51°13.678 2°55.923     214 -999
2001-08-02 02:05:42 51°13.677 2°55.923 359.8   20.5 -999
2001-08-02 02:05:47 51°13.677 2°55.923 359.8   354.5 -999
2001-08-02 02:05:52 51°13.677 2°55.923 359.7   354.3 -999
2001-08-02 02:05:57 51°13.677 2°55.923 359.5   345.8 -999
2001-08-02 02:06:02 51°13.677 2°55.923 359.3   336.6 -999
2001-08-02 02:06:07 51°13.677 2°55.923 359.3   276.4 -999
2001-08-02 02:06:12 51°13.677 2°55.923 359.3   237.4 -999
2001-08-02 02:06:17 51°13.677 2°55.923 359.5   243.9 -999
2001-08-02 02:06:22 51°13.677 2°55.923 359.5   285 -999
2001-08-02 02:06:27 51°13.677 2°55.924 359.7   64.5 -999
2001-08-02 02:06:32 51°13.677 2°55.924 359.8   172 -999
2001-08-02 02:06:37 51°13.678 2°55.924     298 -999
2001-08-02 02:06:42 51°13.678 2°55.924 0.2   329.6 -999
2001-08-02 02:06:47 51°13.677 2°55.924 359.8   22.1 -999
2001-08-02 02:06:52 51°13.677 2°55.924 359.8   359.8 -999
2001-08-02 02:06:57 51°13.677 2°55.924 0.2   225.4 -999
2001-08-02 02:07:02 51°13.677 2°55.924 0.5   176.2 -999
2001-08-02 02:07:07 51°13.677 2°55.924 0.5   192.6 -999
2001-08-02 02:07:12 51°13.678 2°55.924 0.7   241.6 -999
2001-08-02 02:07:17 51°13.678 2°55.924 0.8   256.5 -999
2001-08-02 02:07:22 51°13.678 2°55.924 0.7   40.6 -999
2001-08-02 02:07:27 51°13.677 2°55.924 0.5   340.4 -999
2001-08-02 02:07:32 51°13.677 2°55.924 0.3   342.7 -999
2001-08-02 02:07:37 51°13.677 2°55.924     354.9 -999
2001-08-02 02:07:42 51°13.677 2°55.924 359.7   11.7 -999
2001-08-02 02:07:47 51°13.678 2°55.924 359.5   1.2 -999
2001-08-02 02:07:52 51°13.678 2°55.924 359.2   351.9 -999
2001-08-02 02:07:57 51°13.679 2°55.925 359   350.1 -999
2001-08-02 02:08:02 51°13.679 2°55.925 359   286.7 -999
2001-08-02 02:08:07 51°13.679 2°55.924 359.2   184.6 -999
2001-08-02 02:08:12 51°13.678 2°55.924 359.3   187.1 -999
2001-08-02 02:08:17 51°13.678 2°55.924 359.5   236.5 -999
2001-08-02 02:08:22 51°13.679 2°55.924 359.7   235.8 -999
2001-08-02 02:08:27 51°13.679 2°55.925 359.8   130.3 -999
2001-08-02 02:08:32 51°13.678 2°55.924     230.8 -999
2001-08-02 02:08:37 51°13.678 2°55.924 0.2   320.5 -999
2001-08-02 02:08:42 51°13.678 2°55.924 0.3   234.3 -999
2001-08-02 02:08:47 51°13.678 2°55.924 0.3   219.2 -999
2001-08-02 02:08:52 51°13.678 2°55.924 0.5   214.7 -999
2001-08-02 02:08:57 51°13.678 2°55.924 0.7   250.9 -999
2001-08-02 02:09:02 51°13.678 2°55.924 0.7   300.9 -999
2001-08-02 02:09:07 51°13.677 2°55.924 0.7   309.4 -999
2001-08-02 02:09:12 51°13.677 2°55.924 0.5   356.2 -999
2001-08-02 02:09:17 51°13.677 2°55.924 0.5   0.8 -999
2001-08-02 02:09:22 51°13.677 2°55.924 0.3   306.5 -999
2001-08-02 02:09:27 51°13.677 2°55.924 0.3   340.3 -999
2001-08-02 02:09:32 51°13.677 2°55.924 0.2   13.4 -999
2001-08-02 02:09:37 51°13.677 2°55.924     359.2 -999
2001-08-02 02:09:42 51°13.677 2°55.924     320.1 -999
2001-08-02 02:09:47 51°13.677 2°55.924     264.3 -999
2001-08-02 02:09:52 51°13.677 2°55.924     305.2 -999
2001-08-02 02:09:57 51°13.677 2°55.924     313.3 -999
2001-08-02 02:10:02 51°13.677 2°55.924     5.5 -999
2001-08-02 02:10:07 51°13.677 2°55.924 359.8   359.8 -999
2001-08-02 02:10:12 51°13.677 2°55.924 359.8   5.8 -999
2001-08-02 02:10:17 51°13.677 2°55.924 359.8   357.4 -999
2001-08-02 02:10:22 51°13.677 2°55.924 359.8   357.4 -999
2001-08-02 02:10:27 51°13.677 2°55.924 359.8   9.7 -999
2001-08-02 02:10:32 51°13.677 2°55.924     1.3 -999
2001-08-02 02:10:37 51°13.677 2°55.924     311.6 -999
2001-08-02 02:10:42 51°13.677 2°55.924     320.2 -999
2001-08-02 02:10:47 51°13.677 2°55.924 0.2   350.2 -999
2001-08-02 02:10:52 51°13.677 2°55.924 0.2   27 -999
2001-08-02 02:10:57 51°13.677 2°55.924 0.2   71.5 -999
2001-08-02 02:11:02 51°13.677 2°55.923 0.2   356.1 -999
2001-08-02 02:11:07 51°13.677 2°55.923 0.2   311.3 -999
2001-08-02 02:11:12 51°13.678 2°55.923 0.2   287.2 -999
2001-08-02 02:11:17 51°13.678 2°55.923 0.2   286.8 -999
2001-08-02 02:11:22 51°13.678 2°55.923 0.3   248.2 -999
2001-08-02 02:11:27 51°13.677 2°55.923 0.2   219.6 -999
2001-08-02 02:11:32 51°13.677 2°55.923 0.2   280.7 -999
2001-08-02 02:11:37 51°13.677 2°55.923 0.2   303 -999
2001-08-02 02:11:42 51°13.677 2°55.923 0.2   291.9 -999
2001-08-02 02:11:47 51°13.677 2°55.923 0.2   254.1 -999
2001-08-02 02:11:52 51°13.677 2°55.923 0.2   261 -999
2001-08-02 02:11:57 51°13.677 2°55.923 0.2   321.9 -999
2001-08-02 02:12:02 51°13.677 2°55.923 0.2   15.5 -999
2001-08-02 02:12:07 51°13.678 2°55.923 0.2   352.3 -999
2001-08-02 02:12:12 51°13.678 2°55.923 0.2   268 -999
2001-08-02 02:12:17 51°13.678 2°55.923 0.2   268.4 -999
2001-08-02 02:12:22 51°13.678 2°55.923 0.2   219.2 -999
2001-08-02 02:12:27 51°13.678 2°55.923 0.2   357.9 -999
2001-08-02 02:12:32 51°13.678 2°55.923 0.2   358.4 -999
2001-08-02 02:12:37 51°13.678 2°55.923 0.3   15.2 -999
2001-08-02 02:12:42 51°13.678 2°55.923 0.3   2 -999
2001-08-02 02:12:47 51°13.678 2°55.923 0.3   7.3 -999
2001-08-02 02:12:52 51°13.677 2°55.923 0.3   2.3 -999
2001-08-02 02:12:57 51°13.677 2°55.923 0.5   2.4 -999
2001-08-02 02:13:02 51°13.677 2°55.923 0.5   307.8 -999
2001-08-02 02:13:07 51°13.677 2°55.923 0.5   3.2 -999
2001-08-02 02:13:12 51°13.677 2°55.923 0.7   8.1 -999
2001-08-02 02:13:17 51°13.677 2°55.923 0.7   332.6 -999
2001-08-02 02:13:22 51°13.677 2°55.923 0.7   328.3 -999
2001-08-02 02:13:27 51°13.677 2°55.923 0.7   352.4 -999
2001-08-02 02:13:32 51°13.677 2°55.923 0.5   251.6 -999
2001-08-02 02:13:37 51°13.677 2°55.923 0.5   312.2 -999
2001-08-02 02:13:42 51°13.677 2°55.923 0.5   328.3 -999
2001-08-02 02:13:47 51°13.677 2°55.923 0.3   301.8 -999
2001-08-02 02:13:52 51°13.677 2°55.923 0.3   335.2 -999
2001-08-02 02:13:57 51°13.677 2°55.923 0.2   348.4 -999
2001-08-02 02:14:02 51°13.677 2°55.923     354 -999
2001-08-02 02:14:07 51°13.677 2°55.923     356.8 -999
2001-08-02 02:14:12 51°13.677 2°55.923 359.8   325.5 -999
2001-08-02 02:14:17 51°13.677 2°55.923 359.7   300.3 -999
2001-08-02 02:14:22 51°13.677 2°55.923 359.7   286.6 -999
2001-08-02 02:14:27 51°13.677 2°55.923 359.7   338.3 -999
2001-08-02 02:14:32 51°13.677 2°55.923 359.5   358.7 -999
2001-08-02 02:14:37 51°13.677 2°55.923 359.5   354.1 -999
2001-08-02 02:14:42 51°13.677 2°55.923 359.7   11.4 -999
2001-08-02 02:14:47 51°13.677 2°55.923 359.7   17.7 -999
2001-08-02 02:14:52 51°13.677 2°55.923 359.7   357.1 -999
2001-08-02 02:14:57 51°13.677 2°55.923 359.7   350.6 -999
2001-08-02 02:15:02 51°13.677 2°55.923 359.8   311.6 -999
2001-08-02 02:15:07 51°13.677 2°55.923 359.8   236.4 -999
2001-08-02 02:15:12 51°13.677 2°55.923     194.5 -999
2001-08-02 02:15:17 51°13.677 2°55.923     192.4 -999
2001-08-02 02:15:22 51°13.677 2°55.923 0.2   239.7 -999
2001-08-02 02:15:27 51°13.677 2°55.923 0.2   291.6 -999
2001-08-02 02:15:32 51°13.677 2°55.923 0.3   296.7 -999
2001-08-02 02:15:37 51°13.677 2°55.923 0.3   316.3 -999
2001-08-02 02:15:42 51°13.677 2°55.923 0.3   345.7 -999
2001-08-02 02:15:47 51°13.677 2°55.923 0.5   204.4 -999
2001-08-02 02:15:52 51°13.677 2°55.923 0.5   210 -999
2001-08-02 02:15:57 51°13.677 2°55.923 0.5   272 -999
2001-08-02 02:16:02 51°13.677 2°55.923 0.3   262.6 -999
2001-08-02 02:16:07 51°13.677 2°55.923 0.3   296.5 -999
2001-08-02 02:16:12 51°13.677 2°55.923 0.2   356.6 -999
2001-08-02 02:16:17 51°13.677 2°55.923 0.2   2.5 -999
2001-08-02 02:16:22 51°13.677 2°55.923     356.4 -999
2001-08-02 02:16:27 51°13.677 2°55.923     10.9 -999
2001-08-02 02:16:32 51°13.677 2°55.923 359.8   353 -999
2001-08-02 02:16:37 51°13.677 2°55.923 359.8   26 -999
2001-08-02 02:16:42 51°13.677 2°55.923 359.7   40.1 -999
2001-08-02 02:16:47 51°13.677 2°55.923 359.8   53 -999
2001-08-02 02:16:52 51°13.677 2°55.923 359.8   173.5 -999
2001-08-02 02:16:57 51°13.677 2°55.923     162.8 -999
2001-08-02 02:17:02 51°13.677 2°55.923     179.1 -999
2001-08-02 02:17:07 51°13.677 2°55.923 0.2   192.6 -999
2001-08-02 02:17:12 51°13.677 2°55.923 0.3   230 -999
2001-08-02 02:17:17 51°13.677 2°55.923 0.5   232.3 -999
2001-08-02 02:17:22 51°13.677 2°55.923 0.5   220.7 -999
2001-08-02 02:17:27 51°13.677 2°55.923 0.7   161.8 -999
2001-08-02 02:17:32 51°13.677 2°55.923 0.5   98.6 -999
2001-08-02 02:17:37 51°13.677 2°55.923 0.5   40.3 -999
2001-08-02 02:17:42 51°13.677 2°55.923 0.3   357.7 -999
2001-08-02 02:17:47 51°13.677 2°55.923 0.3   345.9 -999
2001-08-02 02:17:52 51°13.677 2°55.924 0.3   347.3 -999
2001-08-02 02:17:57 51°13.677 2°55.924 0.2   3 -999
2001-08-02 02:18:02 51°13.677 2°55.924 0.2   14 -999
2001-08-02 02:18:07 51°13.677 2°55.924     354.8 -999
2001-08-02 02:18:12 51°13.677 2°55.924     4 -999
2001-08-02 02:18:17 51°13.677 2°55.924     23.2 -999
2001-08-02 02:18:22 51°13.677 2°55.924 359.8   55.3 -999
2001-08-02 02:18:27 51°13.677 2°55.924 359.8   63.7 -999
2001-08-02 02:18:32 51°13.677 2°55.924 359.8   300 -999
2001-08-02 02:18:37 51°13.677 2°55.924 359.7   225.8 -999
2001-08-02 02:18:42 51°13.677 2°55.924 359.7   218.5 -999
2001-08-02 02:18:47 51°13.677 2°55.924 359.8   214.6 -999
2001-08-02 02:18:52 51°13.677 2°55.924 359.8   211.8 -999
2001-08-02 02:18:57 51°13.677 2°55.924     208.2 -999
2001-08-02 02:19:02 51°13.677 2°55.924 0.2   206.2 -999
2001-08-02 02:19:07 51°13.677 2°55.924 0.2   206.5 -999
2001-08-02 02:19:12 51°13.677 2°55.924 0.3   81.4 -999
2001-08-02 02:19:17 51°13.677 2°55.923 0.5   259.9 -999
2001-08-02 02:19:22 51°13.677 2°55.923 0.7   243.4 -999
2001-08-02 02:19:27 51°13.677 2°55.923 0.7   326.9 -999
2001-08-02 02:19:32 51°13.677 2°55.923 0.7   332.7 -999
2001-08-02 02:19:37 51°13.677 2°55.924 0.7   41 -999
2001-08-02 02:19:42 51°13.677 2°55.924 0.7   321.8 -999
2001-08-02 02:19:47 51°13.677 2°55.924 0.7   315.9 -999
2001-08-02 02:19:52 51°13.677 2°55.924 0.7   253.3 -999
2001-08-02 02:19:57 51°13.677 2°55.924 0.7   237 -999
2001-08-02 02:20:02 51°13.677 2°55.924 0.7   345.4 -999
2001-08-02 02:20:07 51°13.677 2°55.924 0.5   280.3 -999
2001-08-02 02:20:12 51°13.677 2°55.924 0.5   242.4 -999
2001-08-02 02:20:17 51°13.678 2°55.924 0.3   252.3 -999
2001-08-02 02:20:22 51°13.678 2°55.924 0.3   232 -999
2001-08-02 02:20:27 51°13.678 2°55.924 0.2   20.9 -999
2001-08-02 02:20:32 51°13.678 2°55.924 0.2   15.8 -999
2001-08-02 02:20:37 51°13.678 2°55.924     25.6 -999
2001-08-02 02:20:42 51°13.678 2°55.924 359.8   29.8 -999
2001-08-02 02:20:47 51°13.678 2°55.924 359.8   10.7 -999
2001-08-02 02:20:52 51°13.678 2°55.924 359.7   353.3 -999
2001-08-02 02:20:57 51°13.677 2°55.924 359.7   8.7 -999
2001-08-02 02:21:02 51°13.677 2°55.924 359.5   41 -999
2001-08-02 02:21:07 51°13.677 2°55.924 359.5   36.5 -999
2001-08-02 02:21:12 51°13.677 2°55.924 359.5   357.8 -999
2001-08-02 02:21:17 51°13.677 2°55.924 359.5   301.6 -999
2001-08-02 02:21:22 51°13.677 2°55.924 359.7   212.1 -999
2001-08-02 02:21:27 51°13.677 2°55.924 359.7   184 -999
2001-08-02 02:21:32 51°13.677 2°55.924 359.8   165.7 -999
2001-08-02 02:21:37 51°13.677 2°55.924     156.5 -999
2001-08-02 02:21:42 51°13.677 2°55.924 0.2   195.2 -999
2001-08-02 02:21:47 51°13.677 2°55.923 0.2   213.5 -999
2001-08-02 02:21:52 51°13.677 2°55.923 0.3   227.4 -999
2001-08-02 02:21:57 51°13.677 2°55.924 0.5   176 -999
2001-08-02 02:22:02 51°13.677 2°55.924 0.5   65 -999
2001-08-02 02:22:07 51°13.677 2°55.924 0.5   44.8 -999
2001-08-02 02:22:12 51°13.677 2°55.924 0.5   32.7 -999
2001-08-02 02:22:17 51°13.677 2°55.924 0.5   32.7 -999
2001-08-02 02:22:22 51°13.677 2°55.924 0.3   25.2 -999
2001-08-02 02:22:27 51°13.677 2°55.924 0.3   22.8 -999
2001-08-02 02:22:32 51°13.677 2°55.924 0.2   3.9 -999
2001-08-02 02:22:37 51°13.677 2°55.924     25.2 -999
2001-08-02 02:22:42 51°13.677 2°55.924     22.7 -999
2001-08-02 02:22:47 51°13.677 2°55.924 359.8   15.8 -999
2001-08-02 02:22:52 51°13.677 2°55.924 359.7   351.7 -999
2001-08-02 02:22:57 51°13.677 2°55.924 359.7   287.2 -999
2001-08-02 02:23:02 51°13.677 2°55.923 359.7   233.1 -999
2001-08-02 02:23:07 51°13.677 2°55.923 359.7   245.4 -999
2001-08-02 02:23:12 51°13.677 2°55.923 359.7   230 -999
2001-08-02 02:23:17 51°13.677 2°55.923 359.8   233.1 -999
2001-08-02 02:23:22 51°13.677 2°55.923 359.8   219.5 -999